Akron, Michigan
Current Conditions -  °F | °C
As of 9:14 AM on Saturday 25 Oct 2014 (Local Time) from KCFS Reporting Station
Haze Haze  
Wind Chill: 52°   Ceiling: 1600
Heat Index: 52°   Visibility: 5mi
Dew Point: 49°   Wind: 8mph
Humidity: 89%   Direction: 230°SW
Pressure: 29.76"   Gusts: NA
Location:  43.57°N, 83.51°W
Report Text: KCFS 251314Z AUTO 23007KT 5SM BR BKN016 BKN034 11/10 A2976 RMK AO2 T01120095
Loading
Personal Weather Stations






























Interactive Weather Map
Tropical Storm Tracking
New forecast layout! Learn more

10-Day Weather Forecast

Advertisements
Track Severe Weather on mobile